sensor_id;sensor_type;location;lat;lon;timestamp;temperature;humidity
22765;DHT22;11549;50.852;3.816;2022-10-23T09:20:55;15.60;99.90
22765;DHT22;11549;50.852;3.816;2022-10-23T09:23:24;15.50;99.90
22765;DHT22;11549;50.852;3.816;2022-10-23T09:25:53;15.60;99.90
22765;DHT22;11549;50.852;3.816;2022-10-23T09:28:25;15.80;99.90
22765;DHT22;11549;50.852;3.816;2022-10-23T09:31:05;16.00;99.90
22765;DHT22;11549;50.852;3.816;2022-10-23T09:33:34;16.30;99.90
22765;DHT22;11549;50.852;3.816;2022-10-23T09:36:06;16.40;99.90
22765;DHT22;11549;50.852;3.816;2022-10-23T09:38:37;16.50;99.90
22765;DHT22;11549;50.852;3.816;2022-10-23T09:41:10;16.50;99.90
22765;DHT22;11549;50.852;3.816;2022-10-23T09:43:41;16.40;99.90
22765;DHT22;11549;50.852;3.816;2022-10-23T09:46:10;16.60;99.90
22765;DHT22;11549;50.852;3.816;2022-10-23T09:48:42;16.60;99.90
22765;DHT22;11549;50.852;3.816;2022-10-23T09:51:18;16.60;99.90
22765;DHT22;11549;50.852;3.816;2022-10-23T09:53:49;16.60;99.90
22765;DHT22;11549;50.852;3.816;2022-10-23T09:56:27;16.80;99.90
22765;DHT22;11549;50.852;3.816;2022-10-23T09:58:58;16.80;99.90
22765;DHT22;11549;50.852;3.816;2022-10-23T10:01:32;16.80;99.90
22765;DHT22;11549;50.852;3.816;2022-10-23T10:04:02;16.80;99.90
22765;DHT22;11549;50.852;3.816;2022-10-23T10:06:32;17.00;99.90
22765;DHT22;11549;50.852;3.816;2022-10-23T10:09:04;17.00;99.90
22765;DHT22;11549;50.852;3.816;2022-10-23T10:11:39;16.90;99.90
22765;DHT22;11549;50.852;3.816;2022-10-23T10:17:18;17.10;99.90
22765;DHT22;11549;50.852;3.816;2022-10-23T10:20:12;17.10;99.90
22765;DHT22;11549;50.852;3.816;2022-10-23T10:22:49;17.20;99.90
22765;DHT22;11549;50.852;3.816;2022-10-23T10:25:21;17.30;99.90
22765;DHT22;11549;50.852;3.816;2022-10-23T10:28:01;17.40;99.90
22765;DHT22;11549;50.852;3.816;2022-10-23T10:30:37;17.40;99.90
22765;DHT22;11549;50.852;3.816;2022-10-23T10:41:32;17.70;99.90
22765;DHT22;11549;50.852;3.816;2022-10-23T10:44:18;17.90;99.90
22765;DHT22;11549;50.852;3.816;2022-10-23T10:46:55;17.70;99.90
22765;DHT22;11549;50.852;3.816;2022-10-23T10:49:31;17.90;99.90
22765;DHT22;11549;50.852;3.816;2022-10-23T10:52:17;17.80;99.90
22765;DHT22;11549;50.852;3.816;2022-10-23T10:54:54;17.90;99.90
22765;DHT22;11549;50.852;3.816;2022-10-23T10:57:31;17.90;99.90
22765;DHT22;11549;50.852;3.816;2022-10-23T11:00:12;18.00;99.90
22765;DHT22;11549;50.852;3.816;2022-10-23T11:02:45;18.00;99.90
22765;DHT22;11549;50.852;3.816;2022-10-23T11:05:21;18.20;99.90
22765;DHT22;11549;50.852;3.816;2022-10-23T11:07:58;18.20;99.90
22765;DHT22;11549;50.852;3.816;2022-10-23T11:10:37;18.30;99.90
22765;DHT22;11549;50.852;3.816;2022-10-23T11:13:21;18.40;99.90
22765;DHT22;11549;50.852;3.816;2022-10-23T11:15:56;18.40;99.90
22765;DHT22;11549;50.852;3.816;2022-10-23T11:18:29;18.50;99.90
22765;DHT22;11549;50.852;3.816;2022-10-23T11:21:07;18.50;99.90
22765;DHT22;11549;50.852;3.816;2022-10-23T11:24:00;18.40;99.90
22765;DHT22;11549;50.852;3.816;2022-10-23T11:26:40;18.50;99.90
22765;DHT22;11549;50.852;3.816;2022-10-23T11:29:28;18.70;99.90
22765;DHT22;11549;50.852;3.816;2022-10-23T11:32:18;18.70;99.90
22765;DHT22;11549;50.852;3.816;2022-10-23T11:35:09;18.80;99.90
22765;DHT22;11549;50.852;3.816;2022-10-23T11:37:41;18.90;99.90
22765;DHT22;11549;50.852;3.816;2022-10-23T11:40:20;19.00;99.90
22765;DHT22;11549;50.852;3.816;2022-10-23T11:42:50;19.20;99.90
22765;DHT22;11549;50.852;3.816;2022-10-23T11:45:29;19.20;99.90
22765;DHT22;11549;50.852;3.816;2022-10-23T11:48:01;19.10;99.90
22765;DHT22;11549;50.852;3.816;2022-10-23T11:50:32;19.20;99.90
22765;DHT22;11549;50.852;3.816;2022-10-23T11:53:04;19.30;99.90
22765;DHT22;11549;50.852;3.816;2022-10-23T11:59:27;19.40;99.90
22765;DHT22;11549;50.852;3.816;2022-10-23T12:02:01;19.40;99.90
22765;DHT22;11549;50.852;3.816;2022-10-23T12:04:38;19.50;99.90
22765;DHT22;11549;50.852;3.816;2022-10-23T12:07:20;19.40;99.90
22765;DHT22;11549;50.852;3.816;2022-10-23T12:10:21;19.30;99.90
22765;DHT22;11549;50.852;3.816;2022-10-23T12:13:00;19.60;99.90
22765;DHT22;11549;50.852;3.816;2022-10-23T12:15:33;19.60;99.90
22765;DHT22;11549;50.852;3.816;2022-10-23T12:18:13;19.80;99.90
22765;DHT22;11549;50.852;3.816;2022-10-23T12:20:51;19.70;99.90
22765;DHT22;11549;50.852;3.816;2022-10-23T12:23:50;19.80;99.90
22765;DHT22;11549;50.852;3.816;2022-10-23T12:26:44;19.90;99.90
22765;DHT22;11549;50.852;3.816;2022-10-23T12:29:40;20.00;99.90
22765;DHT22;11549;50.852;3.816;2022-10-23T12:36:42;20.30;99.90
22765;DHT22;11549;50.852;3.816;2022-10-23T12:39:30;20.30;99.90
22765;DHT22;11549;50.852;3.816;2022-10-23T12:42:25;20.40;99.90
22765;DHT22;11549;50.852;3.816;2022-10-23T12:45:21;20.60;99.90
22765;DHT22;11549;50.852;3.816;2022-10-23T12:48:20;20.80;99.90
22765;DHT22;11549;50.852;3.816;2022-10-23T12:50:53;21.00;99.90
22765;DHT22;11549;50.852;3.816;2022-10-23T12:53:24;21.20;99.90
22765;DHT22;11549;50.852;3.816;2022-10-23T12:55:56;20.90;99.90
22765;DHT22;11549;50.852;3.816;2022-10-23T12:58:29;21.10;99.90
22765;DHT22;11549;50.852;3.816;2022-10-23T13:01:00;20.90;99.90
22765;DHT22;11549;50.852;3.816;2022-10-23T13:03:30;21.00;99.90
22765;DHT22;11549;50.852;3.816;2022-10-23T13:06:00;21.20;99.90
22765;DHT22;11549;50.852;3.816;2022-10-23T13:08:37;21.20;99.90
22765;DHT22;11549;50.852;3.816;2022-10-23T13:11:11;21.10;99.90
22765;DHT22;11549;50.852;3.816;2022-10-23T13:13:41;21.10;99.90
22765;DHT22;11549;50.852;3.816;2022-10-23T13:16:25;21.10;99.90
22765;DHT22;11549;50.852;3.816;2022-10-23T13:18:53;20.90;99.90
22765;DHT22;11549;50.852;3.816;2022-10-23T13:21:24;21.10;99.90
22765;DHT22;11549;50.852;3.816;2022-10-23T13:23:56;21.10;99.90
22765;DHT22;11549;50.852;3.816;2022-10-23T13:26:30;21.20;99.90
22765;DHT22;11549;50.852;3.816;2022-10-23T13:29:01;21.20;99.90
22765;DHT22;11549;50.852;3.816;2022-10-23T13:31:35;21.30;99.90
22765;DHT22;11549;50.852;3.816;2022-10-23T13:34:25;21.50;99.90
22765;DHT22;11549;50.852;3.816;2022-10-23T13:37:00;21.50;99.90
22765;DHT22;11549;50.852;3.816;2022-10-23T13:39:32;21.60;99.90
22765;DHT22;11549;50.852;3.816;2022-10-23T13:42:10;21.50;99.90
22765;DHT22;11549;50.852;3.816;2022-10-23T13:44:40;21.30;99.90
22765;DHT22;11549;50.852;3.816;2022-10-23T13:47:11;21.10;99.90
22765;DHT22;11549;50.852;3.816;2022-10-23T13:49:40;20.90;99.90
22765;DHT22;11549;50.852;3.816;2022-10-23T13:52:09;20.80;99.90
22765;DHT22;11549;50.852;3.816;2022-10-23T13:54:40;20.70;99.90
22765;DHT22;11549;50.852;3.816;2022-10-23T13:59:50;20.80;99.90
22765;DHT22;11549;50.852;3.816;2022-10-23T14:02:20;20.70;99.90
22765;DHT22;11549;50.852;3.816;2022-10-23T14:04:51;20.70;99.90
22765;DHT22;11549;50.852;3.816;2022-10-23T14:07:19;20.70;99.90
22765;DHT22;11549;50.852;3.816;2022-10-23T14:09:49;20.70;99.90
22765;DHT22;11549;50.852;3.816;2022-10-23T14:12:17;20.70;99.90
22765;DHT22;11549;50.852;3.816;2022-10-23T14:14:49;20.70;99.90
22765;DHT22;11549;50.852;3.816;2022-10-23T14:17:18;20.50;99.90
22765;DHT22;11549;50.852;3.816;2022-10-23T14:19:47;20.50;99.90
22765;DHT22;11549;50.852;3.816;2022-10-23T14:22:16;20.30;99.90
22765;DHT22;11549;50.852;3.816;2022-10-23T14:24:45;20.30;99.90
22765;DHT22;11549;50.852;3.816;2022-10-23T14:27:14;20.30;99.90
22765;DHT22;11549;50.852;3.816;2022-10-23T14:29:42;20.20;99.90
22765;DHT22;11549;50.852;3.816;2022-10-23T14:32:11;20.20;99.90
22765;DHT22;11549;50.852;3.816;2022-10-23T14:34:40;20.20;99.90
22765;DHT22;11549;50.852;3.816;2022-10-23T14:37:09;20.30;99.90
22765;DHT22;11549;50.852;3.816;2022-10-23T14:39:37;20.10;99.90
22765;DHT22;11549;50.852;3.816;2022-10-23T14:42:06;20.00;99.90
22765;DHT22;11549;50.852;3.816;2022-10-23T14:44:35;20.10;99.90
22765;DHT22;11549;50.852;3.816;2022-10-23T14:47:05;20.00;99.90
22765;DHT22;11549;50.852;3.816;2022-10-23T14:49:33;20.00;99.90
22765;DHT22;11549;50.852;3.816;2022-10-23T14:52:02;20.00;99.90
22765;DHT22;11549;50.852;3.816;2022-10-23T14:54:31;19.90;99.90
22765;DHT22;11549;50.852;3.816;2022-10-23T14:57:01;20.00;99.90
22765;DHT22;11549;50.852;3.816;2022-10-23T14:59:29;19.90;99.90
22765;DHT22;11549;50.852;3.816;2022-10-23T15:01:59;19.80;99.90
22765;DHT22;11549;50.852;3.816;2022-10-23T15:04:27;19.70;99.90
22765;DHT22;11549;50.852;3.816;2022-10-23T15:06:56;19.60;99.90
22765;DHT22;11549;50.852;3.816;2022-10-23T15:09:24;19.70;99.90
22765;DHT22;11549;50.852;3.816;2022-10-23T15:11:52;19.70;99.90
22765;DHT22;11549;50.852;3.816;2022-10-23T15:14:20;19.80;99.90
22765;DHT22;11549;50.852;3.816;2022-10-23T15:16:49;19.90;99.90
22765;DHT22;11549;50.852;3.816;2022-10-23T15:19:18;19.80;99.90
22765;DHT22;11549;50.852;3.816;2022-10-23T15:21:47;19.80;99.90
22765;DHT22;11549;50.852;3.816;2022-10-23T15:24:16;19.80;99.90
22765;DHT22;11549;50.852;3.816;2022-10-23T15:26:44;19.80;99.90
22765;DHT22;11549;50.852;3.816;2022-10-23T15:29:13;19.90;99.90
22765;DHT22;11549;50.852;3.816;2022-10-23T15:31:43;20.00;99.90
22765;DHT22;11549;50.852;3.816;2022-10-23T15:34:13;20.00;99.90
22765;DHT22;11549;50.852;3.816;2022-10-23T15:36:44;20.10;99.90
22765;DHT22;11549;50.852;3.816;2022-10-23T15:39:15;20.20;99.90
22765;DHT22;11549;50.852;3.816;2022-10-23T15:41:44;20.10;99.90
22765;DHT22;11549;50.852;3.816;2022-10-23T15:44:15;20.10;99.90
22765;DHT22;11549;50.852;3.816;2022-10-23T15:46:43;20.10;99.90
22765;DHT22;11549;50.852;3.816;2022-10-23T15:49:12;20.00;99.90
22765;DHT22;11549;50.852;3.816;2022-10-23T15:51:40;19.90;99.90
22765;DHT22;11549;50.852;3.816;2022-10-23T15:54:13;19.80;99.90
22765;DHT22;11549;50.852;3.816;2022-10-23T15:56:46;19.80;99.90
22765;DHT22;11549;50.852;3.816;2022-10-23T15:59:21;19.80;99.90
22765;DHT22;11549;50.852;3.816;2022-10-23T16:01:50;19.90;99.90
22765;DHT22;11549;50.852;3.816;2022-10-23T16:04:19;19.90;99.90
22765;DHT22;11549;50.852;3.816;2022-10-23T16:06:48;19.90;99.90
22765;DHT22;11549;50.852;3.816;2022-10-23T16:09:18;19.90;99.90
22765;DHT22;11549;50.852;3.816;2022-10-23T16:11:46;19.80;99.90
22765;DHT22;11549;50.852;3.816;2022-10-23T16:14:15;19.70;99.90
22765;DHT22;11549;50.852;3.816;2022-10-23T16:16:44;19.60;99.90
22765;DHT22;11549;50.852;3.816;2022-10-23T16:19:12;19.50;99.90
22765;DHT22;11549;50.852;3.816;2022-10-23T16:21:41;19.40;99.90
22765;DHT22;11549;50.852;3.816;2022-10-23T16:24:10;19.40;99.90
22765;DHT22;11549;50.852;3.816;2022-10-23T16:26:39;19.40;99.90
22765;DHT22;11549;50.852;3.816;2022-10-23T16:29:08;19.40;99.90
22765;DHT22;11549;50.852;3.816;2022-10-23T16:31:37;19.40;99.90
22765;DHT22;11549;50.852;3.816;2022-10-23T16:34:06;19.40;99.90
22765;DHT22;11549;50.852;3.816;2022-10-23T16:36:35;19.40;99.90
22765;DHT22;11549;50.852;3.816;2022-10-23T16:39:06;19.20;99.90
22765;DHT22;11549;50.852;3.816;2022-10-23T16:41:36;19.20;99.90
22765;DHT22;11549;50.852;3.816;2022-10-23T16:44:06;19.30;99.90
22765;DHT22;11549;50.852;3.816;2022-10-23T16:46:35;19.30;99.90
22765;DHT22;11549;50.852;3.816;2022-10-23T16:49:05;19.30;99.90
22765;DHT22;11549;50.852;3.816;2022-10-23T16:51:35;19.30;99.90
22765;DHT22;11549;50.852;3.816;2022-10-23T16:54:04;19.30;99.90
22765;DHT22;11549;50.852;3.816;2022-10-23T16:56:32;19.30;99.90
22765;DHT22;11549;50.852;3.816;2022-10-23T16:59:00;19.30;99.90
22765;DHT22;11549;50.852;3.816;2022-10-23T17:01:31;19.30;99.90
22765;DHT22;11549;50.852;3.816;2022-10-23T17:03:59;19.30;99.90
22765;DHT22;11549;50.852;3.816;2022-10-23T17:06:30;19.30;99.90
22765;DHT22;11549;50.852;3.816;2022-10-23T17:09:00;19.30;99.90
22765;DHT22;11549;50.852;3.816;2022-10-23T17:11:30;19.30;99.90
22765;DHT22;11549;50.852;3.816;2022-10-23T17:14:01;19.50;99.90
22765;DHT22;11549;50.852;3.816;2022-10-23T17:16:33;19.40;99.90
22765;DHT22;11549;50.852;3.816;2022-10-23T17:19:03;19.40;99.90
22765;DHT22;11549;50.852;3.816;2022-10-23T17:21:52;19.40;99.90
22765;DHT22;11549;50.852;3.816;2022-10-23T17:24:22;19.50;99.90
22765;DHT22;11549;50.852;3.816;2022-10-23T17:26:51;19.50;99.90
22765;DHT22;11549;50.852;3.816;2022-10-23T17:29:20;19.60;99.90
22765;DHT22;11549;50.852;3.816;2022-10-23T17:31:50;19.70;99.90
22765;DHT22;11549;50.852;3.816;2022-10-23T17:34:20;19.60;99.90
22765;DHT22;11549;50.852;3.816;2022-10-23T17:36:50;19.30;99.90
22765;DHT22;11549;50.852;3.816;2022-10-23T17:39:21;19.00;99.90
22765;DHT22;11549;50.852;3.816;2022-10-23T17:41:50;18.50;99.90
22765;DHT22;11549;50.852;3.816;2022-10-23T17:44:18;18.00;99.90
22765;DHT22;11549;50.852;3.816;2022-10-23T17:46:50;17.80;99.90
22765;DHT22;11549;50.852;3.816;2022-10-23T17:49:20;17.60;99.90
22765;DHT22;11549;50.852;3.816;2022-10-23T17:51:50;17.50;99.90
22765;DHT22;11549;50.852;3.816;2022-10-23T17:54:19;17.50;99.90
22765;DHT22;11549;50.852;3.816;2022-10-23T17:56:47;17.40;99.90
22765;DHT22;11549;50.852;3.816;2022-10-23T17:59:16;17.50;99.90
22765;DHT22;11549;50.852;3.816;2022-10-23T18:01:46;17.50;99.90
22765;DHT22;11549;50.852;3.816;2022-10-23T18:04:17;17.50;99.90
22765;DHT22;11549;50.852;3.816;2022-10-23T18:06:47;17.40;99.90
22765;DHT22;11549;50.852;3.816;2022-10-23T18:09:16;17.50;99.90
22765;DHT22;11549;50.852;3.816;2022-10-23T18:11:45;17.60;99.90
22765;DHT22;11549;50.852;3.816;2022-10-23T18:14:15;17.60;99.90
22765;DHT22;11549;50.852;3.816;2022-10-23T18:16:44;17.50;99.90
22765;DHT22;11549;50.852;3.816;2022-10-23T18:19:13;17.50;99.90
22765;DHT22;11549;50.852;3.816;2022-10-23T18:21:43;17.50;99.90
22765;DHT22;11549;50.852;3.816;2022-10-23T18:24:11;17.30;99.90
22765;DHT22;11549;50.852;3.816;2022-10-23T18:26:40;17.10;99.90
22765;DHT22;11549;50.852;3.816;2022-10-23T18:29:10;17.00;99.90
22765;DHT22;11549;50.852;3.816;2022-10-23T18:31:42;17.10;99.90
22765;DHT22;11549;50.852;3.816;2022-10-23T18:34:16;17.10;99.90
22765;DHT22;11549;50.852;3.816;2022-10-23T18:36:50;17.20;99.90
22765;DHT22;11549;50.852;3.816;2022-10-23T18:39:20;17.10;99.90
22765;DHT22;11549;50.852;3.816;2022-10-23T18:41:51;17.00;99.90
22765;DHT22;11549;50.852;3.816;2022-10-23T18:44:21;16.80;99.90
22765;DHT22;11549;50.852;3.816;2022-10-23T18:46:50;16.80;99.90
22765;DHT22;11549;50.852;3.816;2022-10-23T18:49:19;16.70;99.90
22765;DHT22;11549;50.852;3.816;2022-10-23T18:51:49;16.80;99.90
22765;DHT22;11549;50.852;3.816;2022-10-23T18:54:20;16.70;99.90
22765;DHT22;11549;50.852;3.816;2022-10-23T18:56:49;16.70;99.90
22765;DHT22;11549;50.852;3.816;2022-10-23T18:59:19;16.70;99.90
22765;DHT22;11549;50.852;3.816;2022-10-23T19:01:48;16.70;99.90
22765;DHT22;11549;50.852;3.816;2022-10-23T19:04:17;16.80;99.90
22765;DHT22;11549;50.852;3.816;2022-10-23T19:06:46;16.70;99.90
22765;DHT22;11549;50.852;3.816;2022-10-23T19:09:17;16.60;99.90
22765;DHT22;11549;50.852;3.816;2022-10-23T19:11:45;16.50;99.90
22765;DHT22;11549;50.852;3.816;2022-10-23T19:14:14;16.50;99.90
22765;DHT22;11549;50.852;3.816;2022-10-23T19:16:48;16.50;99.90
22765;DHT22;11549;50.852;3.816;2022-10-23T19:19:23;16.50;99.90
22765;DHT22;11549;50.852;3.816;2022-10-23T19:21:53;16.50;99.90
22765;DHT22;11549;50.852;3.816;2022-10-23T19:24:26;16.50;99.90
22765;DHT22;11549;50.852;3.816;2022-10-23T19:26:58;16.50;99.90
22765;DHT22;11549;50.852;3.816;2022-10-23T19:29:28;16.50;99.90
22765;DHT22;11549;50.852;3.816;2022-10-23T19:31:57;16.40;99.90
22765;DHT22;11549;50.852;3.816;2022-10-23T19:34:25;16.50;99.90
22765;DHT22;11549;50.852;3.816;2022-10-23T19:36:54;16.50;99.90
22765;DHT22;11549;50.852;3.816;2022-10-23T19:39:23;16.60;99.90
22765;DHT22;11549;50.852;3.816;2022-10-23T19:41:52;16.70;99.90
22765;DHT22;11549;50.852;3.816;2022-10-23T19:44:21;16.60;99.90
22765;DHT22;11549;50.852;3.816;2022-10-23T19:46:49;16.60;99.90
22765;DHT22;11549;50.852;3.816;2022-10-23T19:49:18;16.50;99.90
22765;DHT22;11549;50.852;3.816;2022-10-23T19:51:47;16.60;99.90
22765;DHT22;11549;50.852;3.816;2022-10-23T19:54:18;16.60;99.90
22765;DHT22;11549;50.852;3.816;2022-10-23T19:56:48;16.50;99.90
22765;DHT22;11549;50.852;3.816;2022-10-23T19:59:17;16.70;99.90
22765;DHT22;11549;50.852;3.816;2022-10-23T20:01:45;16.70;99.90
22765;DHT22;11549;50.852;3.816;2022-10-23T20:04:16;16.80;99.90
22765;DHT22;11549;50.852;3.816;2022-10-23T20:06:44;16.90;99.90
22765;DHT22;11549;50.852;3.816;2022-10-23T20:09:13;16.90;99.90
22765;DHT22;11549;50.852;3.816;2022-10-23T20:11:42;16.90;99.90
22765;DHT22;11549;50.852;3.816;2022-10-23T20:14:12;17.00;99.90
22765;DHT22;11549;50.852;3.816;2022-10-23T20:16:43;17.10;99.90
22765;DHT22;11549;50.852;3.816;2022-10-23T20:19:13;17.10;99.90
22765;DHT22;11549;50.852;3.816;2022-10-23T20:21:45;17.10;99.90
22765;DHT22;11549;50.852;3.816;2022-10-23T20:24:16;17.20;99.90
22765;DHT22;11549;50.852;3.816;2022-10-23T20:26:49;17.20;99.90
22765;DHT22;11549;50.852;3.816;2022-10-23T20:29:18;17.10;99.90
22765;DHT22;11549;50.852;3.816;2022-10-23T20:31:47;17.00;99.90
22765;DHT22;11549;50.852;3.816;2022-10-23T20:34:16;17.10;99.90
22765;DHT22;11549;50.852;3.816;2022-10-23T20:36:46;17.10;99.90
22765;DHT22;11549;50.852;3.816;2022-10-23T20:39:18;17.10;99.90
22765;DHT22;11549;50.852;3.816;2022-10-23T20:41:46;17.20;99.90
22765;DHT22;11549;50.852;3.816;2022-10-23T20:44:17;17.20;99.90
22765;DHT22;11549;50.852;3.816;2022-10-23T20:46:46;17.30;99.90
22765;DHT22;11549;50.852;3.816;2022-10-23T20:49:15;17.30;99.90
22765;DHT22;11549;50.852;3.816;2022-10-23T20:51:43;17.30;99.90
22765;DHT22;11549;50.852;3.816;2022-10-23T20:54:12;17.30;99.90
22765;DHT22;11549;50.852;3.816;2022-10-23T20:56:40;17.20;99.90
22765;DHT22;11549;50.852;3.816;2022-10-23T20:59:10;17.10;99.90
22765;DHT22;11549;50.852;3.816;2022-10-23T21:01:42;17.00;99.90
22765;DHT22;11549;50.852;3.816;2022-10-23T21:04:11;17.00;99.90
22765;DHT22;11549;50.852;3.816;2022-10-23T21:06:40;17.10;99.90
22765;DHT22;11549;50.852;3.816;2022-10-23T21:09:29;17.10;99.90
22765;DHT22;11549;50.852;3.816;2022-10-23T21:11:57;17.00;99.90
22765;DHT22;11549;50.852;3.816;2022-10-23T21:14:25;16.90;99.90
22765;DHT22;11549;50.852;3.816;2022-10-23T21:16:56;16.80;99.90
22765;DHT22;11549;50.852;3.816;2022-10-23T21:19:24;16.70;99.90
22765;DHT22;11549;50.852;3.816;2022-10-23T21:21:53;16.60;99.90
22765;DHT22;11549;50.852;3.816;2022-10-23T21:24:21;16.50;99.90
22765;DHT22;11549;50.852;3.816;2022-10-23T21:26:50;16.40;99.90
22765;DHT22;11549;50.852;3.816;2022-10-23T21:29:18;16.60;99.90
22765;DHT22;11549;50.852;3.816;2022-10-23T21:31:51;16.50;99.90
22765;DHT22;11549;50.852;3.816;2022-10-23T21:34:21;16.50;99.90
22765;DHT22;11549;50.852;3.816;2022-10-23T21:36:50;16.50;99.90
22765;DHT22;11549;50.852;3.816;2022-10-23T21:39:38;16.40;99.90
22765;DHT22;11549;50.852;3.816;2022-10-23T21:42:07;16.40;99.90
22765;DHT22;11549;50.852;3.816;2022-10-23T21:44:35;16.30;99.90
22765;DHT22;11549;50.852;3.816;2022-10-23T21:47:04;16.30;99.90
22765;DHT22;11549;50.852;3.816;2022-10-23T21:49:34;16.20;99.90
22765;DHT22;11549;50.852;3.816;2022-10-23T21:52:03;16.30;99.90
22765;DHT22;11549;50.852;3.816;2022-10-23T21:54:32;16.30;99.90
22765;DHT22;11549;50.852;3.816;2022-10-23T21:57:00;16.40;99.90
22765;DHT22;11549;50.852;3.816;2022-10-23T21:59:30;16.40;99.90
22765;DHT22;11549;50.852;3.816;2022-10-23T22:02:01;16.50;99.90
22765;DHT22;11549;50.852;3.816;2022-10-23T22:04:30;16.50;99.90
22765;DHT22;11549;50.852;3.816;2022-10-23T22:07:00;16.40;99.90
22765;DHT22;11549;50.852;3.816;2022-10-23T22:09:29;16.50;99.90
22765;DHT22;11549;50.852;3.816;2022-10-23T22:11:58;16.50;99.90
22765;DHT22;11549;50.852;3.816;2022-10-23T22:14:27;16.50;99.90
22765;DHT22;11549;50.852;3.816;2022-10-23T22:16:55;16.60;99.90
22765;DHT22;11549;50.852;3.816;2022-10-23T22:19:24;16.50;99.90
22765;DHT22;11549;50.852;3.816;2022-10-23T22:21:52;16.40;99.90
22765;DHT22;11549;50.852;3.816;2022-10-23T22:24:23;16.40;99.90
22765;DHT22;11549;50.852;3.816;2022-10-23T22:26:53;16.40;99.90
22765;DHT22;11549;50.852;3.816;2022-10-23T22:29:24;16.50;99.90
22765;DHT22;11549;50.852;3.816;2022-10-23T22:31:52;16.50;99.90
22765;DHT22;11549;50.852;3.816;2022-10-23T22:34:22;16.70;99.90
22765;DHT22;11549;50.852;3.816;2022-10-23T22:37:11;16.70;99.90
22765;DHT22;11549;50.852;3.816;2022-10-23T22:39:41;16.60;99.90
22765;DHT22;11549;50.852;3.816;2022-10-23T22:42:09;16.70;99.90
22765;DHT22;11549;50.852;3.816;2022-10-23T22:44:38;16.90;99.90
22765;DHT22;11549;50.852;3.816;2022-10-23T22:47:06;17.00;99.90
22765;DHT22;11549;50.852;3.816;2022-10-23T22:49:34;16.90;99.90
22765;DHT22;11549;50.852;3.816;2022-10-23T22:52:03;17.00;99.90
22765;DHT22;11549;50.852;3.816;2022-10-23T22:54:32;17.00;99.90
22765;DHT22;11549;50.852;3.816;2022-10-23T22:57:01;17.00;99.90
22765;DHT22;11549;50.852;3.816;2022-10-23T22:59:30;17.10;99.90
22765;DHT22;11549;50.852;3.816;2022-10-23T23:01:58;17.10;99.90
22765;DHT22;11549;50.852;3.816;2022-10-23T23:04:26;17.20;99.90
22765;DHT22;11549;50.852;3.816;2022-10-23T23:07:05;17.30;99.90
22765;DHT22;11549;50.852;3.816;2022-10-23T23:09:35;17.30;99.90
22765;DHT22;11549;50.852;3.816;2022-10-23T23:12:07;17.20;99.90
22765;DHT22;11549;50.852;3.816;2022-10-23T23:14:36;17.30;99.90
22765;DHT22;11549;50.852;3.816;2022-10-23T23:17:05;17.30;99.90
22765;DHT22;11549;50.852;3.816;2022-10-23T23:19:34;17.20;99.90
22765;DHT22;11549;50.852;3.816;2022-10-23T23:22:03;17.30;99.90
22765;DHT22;11549;50.852;3.816;2022-10-23T23:24:32;17.40;99.90
22765;DHT22;11549;50.852;3.816;2022-10-23T23:27:00;17.30;99.90
22765;DHT22;11549;50.852;3.816;2022-10-23T23:29:30;17.40;99.90
22765;DHT22;11549;50.852;3.816;2022-10-23T23:31:59;17.40;99.90
22765;DHT22;11549;50.852;3.816;2022-10-23T23:34:27;17.40;99.90
22765;DHT22;11549;50.852;3.816;2022-10-23T23:36:56;17.40;99.90
22765;DHT22;11549;50.852;3.816;2022-10-23T23:39:24;17.30;99.90
22765;DHT22;11549;50.852;3.816;2022-10-23T23:41:54;17.40;99.90
22765;DHT22;11549;50.852;3.816;2022-10-23T23:44:23;17.40;99.90
22765;DHT22;11549;50.852;3.816;2022-10-23T23:46:52;17.40;99.90
22765;DHT22;11549;50.852;3.816;2022-10-23T23:49:21;17.40;99.90
22765;DHT22;11549;50.852;3.816;2022-10-23T23:51:51;17.40;99.90
22765;DHT22;11549;50.852;3.816;2022-10-23T23:54:19;17.40;99.90
22765;DHT22;11549;50.852;3.816;2022-10-23T23:56:48;17.40;99.90
22765;DHT22;11549;50.852;3.816;2022-10-23T23:59:16;17.40;99.90
